sensor_id;sensor_type;location;lat;lon;timestamp;temperature;humidity
13998;DHT22;7074;51.508;7.018;2023-05-07T00:00:21;17.80;99.90
13998;DHT22;7074;51.508;7.018;2023-05-07T00:02:49;17.60;99.90
13998;DHT22;7074;51.508;7.018;2023-05-07T00:05:16;17.50;99.90
13998;DHT22;7074;51.508;7.018;2023-05-07T00:07:44;17.40;99.90
13998;DHT22;7074;51.508;7.018;2023-05-07T00:10:11;17.40;99.90
13998;DHT22;7074;51.508;7.018;2023-05-07T00:12:39;17.50;99.90
13998;DHT22;7074;51.508;7.018;2023-05-07T00:15:08;17.50;99.90
13998;DHT22;7074;51.508;7.018;2023-05-07T00:17:35;17.50;99.90
13998;DHT22;7074;51.508;7.018;2023-05-07T00:20:03;17.50;99.90
13998;DHT22;7074;51.508;7.018;2023-05-07T00:22:31;17.60;99.90
13998;DHT22;7074;51.508;7.018;2023-05-07T00:24:59;17.60;99.90
13998;DHT22;7074;51.508;7.018;2023-05-07T00:27:27;17.60;99.90
13998;DHT22;7074;51.508;7.018;2023-05-07T00:29:54;17.60;99.90
13998;DHT22;7074;51.508;7.018;2023-05-07T00:32:21;17.60;99.90
13998;DHT22;7074;51.508;7.018;2023-05-07T00:34:48;17.60;99.90
13998;DHT22;7074;51.508;7.018;2023-05-07T00:37:16;17.60;99.90
13998;DHT22;7074;51.508;7.018;2023-05-07T00:39:43;17.60;99.90
13998;DHT22;7074;51.508;7.018;2023-05-07T00:42:12;17.60;99.90
13998;DHT22;7074;51.508;7.018;2023-05-07T00:44:40;17.60;99.90
13998;DHT22;7074;51.508;7.018;2023-05-07T00:47:07;17.50;99.90
13998;DHT22;7074;51.508;7.018;2023-05-07T00:49:38;17.50;99.90
13998;DHT22;7074;51.508;7.018;2023-05-07T00:52:06;17.40;99.90
13998;DHT22;7074;51.508;7.018;2023-05-07T00:54:34;17.40;99.90
13998;DHT22;7074;51.508;7.018;2023-05-07T00:57:34;17.40;99.90
13998;DHT22;7074;51.508;7.018;2023-05-07T01:00:04;17.40;99.90
13998;DHT22;7074;51.508;7.018;2023-05-07T01:02:31;17.40;99.90
13998;DHT22;7074;51.508;7.018;2023-05-07T01:05:00;17.40;99.90
13998;DHT22;7074;51.508;7.018;2023-05-07T01:07:27;17.40;99.90
13998;DHT22;7074;51.508;7.018;2023-05-07T01:09:56;17.40;99.90
13998;DHT22;7074;51.508;7.018;2023-05-07T01:12:24;17.30;99.90
13998;DHT22;7074;51.508;7.018;2023-05-07T01:14:53;17.30;99.90
13998;DHT22;7074;51.508;7.018;2023-05-07T01:17:20;17.30;99.90
13998;DHT22;7074;51.508;7.018;2023-05-07T01:19:48;17.30;99.90
13998;DHT22;7074;51.508;7.018;2023-05-07T01:22:17;17.30;99.90
13998;DHT22;7074;51.508;7.018;2023-05-07T01:24:51;17.20;99.90
13998;DHT22;7074;51.508;7.018;2023-05-07T01:27:18;17.30;99.90
13998;DHT22;7074;51.508;7.018;2023-05-07T01:29:48;17.30;99.90
13998;DHT22;7074;51.508;7.018;2023-05-07T01:32:19;17.30;99.90
13998;DHT22;7074;51.508;7.018;2023-05-07T01:34:48;17.20;99.90
13998;DHT22;7074;51.508;7.018;2023-05-07T01:37:16;17.20;99.90
13998;DHT22;7074;51.508;7.018;2023-05-07T01:39:44;17.30;99.90
13998;DHT22;7074;51.508;7.018;2023-05-07T01:42:13;17.30;99.90
13998;DHT22;7074;51.508;7.018;2023-05-07T01:44:40;17.30;99.90
13998;DHT22;7074;51.508;7.018;2023-05-07T01:47:08;17.30;99.90
13998;DHT22;7074;51.508;7.018;2023-05-07T01:49:36;17.30;99.90
13998;DHT22;7074;51.508;7.018;2023-05-07T01:52:03;17.30;99.90
13998;DHT22;7074;51.508;7.018;2023-05-07T01:54:31;17.20;99.90
13998;DHT22;7074;51.508;7.018;2023-05-07T01:56:59;17.10;99.90
13998;DHT22;7074;51.508;7.018;2023-05-07T01:59:27;17.10;99.90
13998;DHT22;7074;51.508;7.018;2023-05-07T02:01:54;17.10;99.90
13998;DHT22;7074;51.508;7.018;2023-05-07T02:04:22;17.10;99.90
13998;DHT22;7074;51.508;7.018;2023-05-07T02:10:31;17.10;99.90
13998;DHT22;7074;51.508;7.018;2023-05-07T02:12:59;17.10;99.90
13998;DHT22;7074;51.508;7.018;2023-05-07T02:15:28;17.10;99.90
13998;DHT22;7074;51.508;7.018;2023-05-07T02:17:59;17.10;99.90
13998;DHT22;7074;51.508;7.018;2023-05-07T02:20:27;17.10;99.90
13998;DHT22;7074;51.508;7.018;2023-05-07T02:22:54;17.10;99.90
13998;DHT22;7074;51.508;7.018;2023-05-07T02:25:21;17.00;99.90
13998;DHT22;7074;51.508;7.018;2023-05-07T02:27:48;17.00;99.90
13998;DHT22;7074;51.508;7.018;2023-05-07T02:30:17;17.00;99.90
13998;DHT22;7074;51.508;7.018;2023-05-07T02:32:48;17.00;99.90
13998;DHT22;7074;51.508;7.018;2023-05-07T02:35:16;17.00;99.90
13998;DHT22;7074;51.508;7.018;2023-05-07T02:37:43;17.00;99.90
13998;DHT22;7074;51.508;7.018;2023-05-07T02:40:12;17.00;99.90
13998;DHT22;7074;51.508;7.018;2023-05-07T02:42:39;17.00;99.90
13998;DHT22;7074;51.508;7.018;2023-05-07T02:45:07;17.00;99.90
13998;DHT22;7074;51.508;7.018;2023-05-07T02:47:34;17.00;99.90
13998;DHT22;7074;51.508;7.018;2023-05-07T02:50:06;16.90;99.90
13998;DHT22;7074;51.508;7.018;2023-05-07T02:52:33;16.90;99.90
13998;DHT22;7074;51.508;7.018;2023-05-07T02:55:00;16.90;99.90
13998;DHT22;7074;51.508;7.018;2023-05-07T02:57:28;16.90;99.90
13998;DHT22;7074;51.508;7.018;2023-05-07T02:59:55;16.90;99.90
13998;DHT22;7074;51.508;7.018;2023-05-07T03:02:22;16.90;99.90
13998;DHT22;7074;51.508;7.018;2023-05-07T03:04:51;16.90;99.90
13998;DHT22;7074;51.508;7.018;2023-05-07T03:07:19;16.90;99.90
13998;DHT22;7074;51.508;7.018;2023-05-07T03:09:46;16.90;99.90
13998;DHT22;7074;51.508;7.018;2023-05-07T03:12:14;16.90;99.90
13998;DHT22;7074;51.508;7.018;2023-05-07T03:14:41;16.90;99.90
13998;DHT22;7074;51.508;7.018;2023-05-07T03:17:08;16.80;99.90
13998;DHT22;7074;51.508;7.018;2023-05-07T03:19:35;16.80;99.90
13998;DHT22;7074;51.508;7.018;2023-05-07T03:22:03;16.90;99.90
13998;DHT22;7074;51.508;7.018;2023-05-07T03:24:31;16.90;99.90
13998;DHT22;7074;51.508;7.018;2023-05-07T03:26:58;16.90;99.90
13998;DHT22;7074;51.508;7.018;2023-05-07T03:29:27;16.80;99.90
13998;DHT22;7074;51.508;7.018;2023-05-07T03:31:54;16.80;99.90
13998;DHT22;7074;51.508;7.018;2023-05-07T03:34:22;16.80;99.90
13998;DHT22;7074;51.508;7.018;2023-05-07T03:36:49;16.80;99.90
13998;DHT22;7074;51.508;7.018;2023-05-07T03:39:18;16.70;99.90
13998;DHT22;7074;51.508;7.018;2023-05-07T03:41:47;16.70;99.90
13998;DHT22;7074;51.508;7.018;2023-05-07T03:44:14;16.70;99.90
13998;DHT22;7074;51.508;7.018;2023-05-07T03:46:42;16.70;99.90
13998;DHT22;7074;51.508;7.018;2023-05-07T03:49:10;16.70;99.90
13998;DHT22;7074;51.508;7.018;2023-05-07T03:51:37;16.70;99.90
13998;DHT22;7074;51.508;7.018;2023-05-07T03:54:07;16.70;99.90
13998;DHT22;7074;51.508;7.018;2023-05-07T03:56:34;16.70;99.90
13998;DHT22;7074;51.508;7.018;2023-05-07T03:59:03;16.70;99.90
13998;DHT22;7074;51.508;7.018;2023-05-07T04:01:30;16.60;99.90
13998;DHT22;7074;51.508;7.018;2023-05-07T04:03:57;16.60;99.90
13998;DHT22;7074;51.508;7.018;2023-05-07T04:06:24;16.70;99.90
13998;DHT22;7074;51.508;7.018;2023-05-07T04:08:52;16.70;99.90
13998;DHT22;7074;51.508;7.018;2023-05-07T04:11:20;16.60;99.90
13998;DHT22;7074;51.508;7.018;2023-05-07T04:13:47;16.60;99.90
13998;DHT22;7074;51.508;7.018;2023-05-07T04:16:20;16.60;99.90
13998;DHT22;7074;51.508;7.018;2023-05-07T04:18:48;16.60;99.90
13998;DHT22;7074;51.508;7.018;2023-05-07T04:21:16;16.60;99.90
13998;DHT22;7074;51.508;7.018;2023-05-07T04:23:43;16.60;99.90
13998;DHT22;7074;51.508;7.018;2023-05-07T04:26:12;16.60;99.90
13998;DHT22;7074;51.508;7.018;2023-05-07T04:28:42;16.60;99.90
13998;DHT22;7074;51.508;7.018;2023-05-07T04:31:10;16.70;99.90
13998;DHT22;7074;51.508;7.018;2023-05-07T04:33:39;16.60;99.90
13998;DHT22;7074;51.508;7.018;2023-05-07T04:36:09;16.60;99.90
13998;DHT22;7074;51.508;7.018;2023-05-07T04:38:44;16.60;99.90
13998;DHT22;7074;51.508;7.018;2023-05-07T04:41:12;16.60;99.90
13998;DHT22;7074;51.508;7.018;2023-05-07T04:43:40;16.50;99.90
13998;DHT22;7074;51.508;7.018;2023-05-07T04:46:10;16.50;99.90
13998;DHT22;7074;51.508;7.018;2023-05-07T04:48:38;16.50;99.90
13998;DHT22;7074;51.508;7.018;2023-05-07T04:51:06;16.40;99.90
13998;DHT22;7074;51.508;7.018;2023-05-07T04:53:34;16.40;99.90
13998;DHT22;7074;51.508;7.018;2023-05-07T04:56:01;16.40;99.90
13998;DHT22;7074;51.508;7.018;2023-05-07T04:58:38;16.40;99.90
13998;DHT22;7074;51.508;7.018;2023-05-07T05:01:06;16.40;99.90
13998;DHT22;7074;51.508;7.018;2023-05-07T05:03:33;16.40;99.90
13998;DHT22;7074;51.508;7.018;2023-05-07T05:06:01;16.40;99.90
13998;DHT22;7074;51.508;7.018;2023-05-07T05:08:32;16.40;99.90
13998;DHT22;7074;51.508;7.018;2023-05-07T05:11:02;16.40;99.90
13998;DHT22;7074;51.508;7.018;2023-05-07T05:13:31;16.50;99.90
13998;DHT22;7074;51.508;7.018;2023-05-07T05:15:59;16.50;99.90
13998;DHT22;7074;51.508;7.018;2023-05-07T05:18:28;16.50;99.90
13998;DHT22;7074;51.508;7.018;2023-05-07T05:20:56;16.60;99.90
13998;DHT22;7074;51.508;7.018;2023-05-07T05:23:24;16.60;99.90
13998;DHT22;7074;51.508;7.018;2023-05-07T05:25:55;16.70;99.90
13998;DHT22;7074;51.508;7.018;2023-05-07T05:28:25;16.80;99.90
13998;DHT22;7074;51.508;7.018;2023-05-07T05:30:53;16.70;99.90
13998;DHT22;7074;51.508;7.018;2023-05-07T05:33:22;16.80;99.90
13998;DHT22;7074;51.508;7.018;2023-05-07T05:35:50;16.80;99.90
13998;DHT22;7074;51.508;7.018;2023-05-07T05:38:18;16.90;99.90
13998;DHT22;7074;51.508;7.018;2023-05-07T05:40:48;16.90;99.90
13998;DHT22;7074;51.508;7.018;2023-05-07T05:43:15;17.00;99.90
13998;DHT22;7074;51.508;7.018;2023-05-07T05:45:43;17.00;99.90
13998;DHT22;7074;51.508;7.018;2023-05-07T05:48:10;17.10;99.90
13998;DHT22;7074;51.508;7.018;2023-05-07T05:50:38;17.10;99.90
13998;DHT22;7074;51.508;7.018;2023-05-07T05:53:06;17.20;99.90
13998;DHT22;7074;51.508;7.018;2023-05-07T05:55:33;17.20;99.90
13998;DHT22;7074;51.508;7.018;2023-05-07T05:58:02;17.20;99.90
13998;DHT22;7074;51.508;7.018;2023-05-07T06:00:33;17.30;99.90
13998;DHT22;7074;51.508;7.018;2023-05-07T06:03:03;17.40;99.90
13998;DHT22;7074;51.508;7.018;2023-05-07T06:05:31;17.40;99.90
13998;DHT22;7074;51.508;7.018;2023-05-07T06:07:58;17.40;99.90
13998;DHT22;7074;51.508;7.018;2023-05-07T06:10:29;17.50;99.90
13998;DHT22;7074;51.508;7.018;2023-05-07T06:12:57;17.50;99.90
13998;DHT22;7074;51.508;7.018;2023-05-07T06:15:26;17.60;99.90
13998;DHT22;7074;51.508;7.018;2023-05-07T06:17:54;17.60;99.90
13998;DHT22;7074;51.508;7.018;2023-05-07T06:20:23;17.70;99.90
13998;DHT22;7074;51.508;7.018;2023-05-07T06:22:50;17.80;99.90
13998;DHT22;7074;51.508;7.018;2023-05-07T06:25:18;17.90;99.90
13998;DHT22;7074;51.508;7.018;2023-05-07T06:27:46;18.00;99.90
13998;DHT22;7074;51.508;7.018;2023-05-07T06:30:13;18.00;99.90
13998;DHT22;7074;51.508;7.018;2023-05-07T06:32:42;18.00;99.90
13998;DHT22;7074;51.508;7.018;2023-05-07T06:35:11;18.10;99.90
13998;DHT22;7074;51.508;7.018;2023-05-07T06:37:41;17.80;99.90
13998;DHT22;7074;51.508;7.018;2023-05-07T06:40:12;17.60;99.90
13998;DHT22;7074;51.508;7.018;2023-05-07T06:42:41;17.70;99.90
13998;DHT22;7074;51.508;7.018;2023-05-07T06:45:37;17.70;99.90
13998;DHT22;7074;51.508;7.018;2023-05-07T06:48:08;17.60;99.90
13998;DHT22;7074;51.508;7.018;2023-05-07T06:50:45;17.70;99.90
13998;DHT22;7074;51.508;7.018;2023-05-07T06:53:13;17.90;99.90
13998;DHT22;7074;51.508;7.018;2023-05-07T06:55:41;18.00;99.90
13998;DHT22;7074;51.508;7.018;2023-05-07T06:58:09;18.10;99.90
13998;DHT22;7074;51.508;7.018;2023-05-07T07:00:37;18.20;99.90
13998;DHT22;7074;51.508;7.018;2023-05-07T07:03:05;18.30;99.90
13998;DHT22;7074;51.508;7.018;2023-05-07T07:05:33;18.40;99.90
13998;DHT22;7074;51.508;7.018;2023-05-07T07:08:02;18.30;99.90
13998;DHT22;7074;51.508;7.018;2023-05-07T07:10:29;18.30;99.90
13998;DHT22;7074;51.508;7.018;2023-05-07T07:12:56;18.50;99.90
13998;DHT22;7074;51.508;7.018;2023-05-07T07:15:24;18.70;99.90
13998;DHT22;7074;51.508;7.018;2023-05-07T07:17:53;18.70;99.90
13998;DHT22;7074;51.508;7.018;2023-05-07T07:20:22;18.70;99.90
13998;DHT22;7074;51.508;7.018;2023-05-07T07:22:51;18.80;99.90
13998;DHT22;7074;51.508;7.018;2023-05-07T07:25:18;18.90;99.90
13998;DHT22;7074;51.508;7.018;2023-05-07T07:27:48;19.00;99.90
13998;DHT22;7074;51.508;7.018;2023-05-07T07:30:16;19.20;99.90
13998;DHT22;7074;51.508;7.018;2023-05-07T07:32:46;19.20;99.90
13998;DHT22;7074;51.508;7.018;2023-05-07T07:35:14;19.00;99.90
13998;DHT22;7074;51.508;7.018;2023-05-07T07:37:43;19.00;99.90
13998;DHT22;7074;51.508;7.018;2023-05-07T07:40:14;19.10;99.90
13998;DHT22;7074;51.508;7.018;2023-05-07T07:42:41;19.10;99.90
13998;DHT22;7074;51.508;7.018;2023-05-07T07:45:10;19.10;99.90
13998;DHT22;7074;51.508;7.018;2023-05-07T07:47:41;19.30;99.90
13998;DHT22;7074;51.508;7.018;2023-05-07T07:50:09;19.30;99.90
13998;DHT22;7074;51.508;7.018;2023-05-07T07:52:36;19.30;99.90
13998;DHT22;7074;51.508;7.018;2023-05-07T07:55:06;19.30;99.90
13998;DHT22;7074;51.508;7.018;2023-05-07T07:57:35;19.50;99.90
13998;DHT22;7074;51.508;7.018;2023-05-07T08:00:06;19.50;99.90
13998;DHT22;7074;51.508;7.018;2023-05-07T08:02:42;19.50;99.90
13998;DHT22;7074;51.508;7.018;2023-05-07T08:05:13;19.40;99.90
13998;DHT22;7074;51.508;7.018;2023-05-07T08:07:41;19.40;99.90
13998;DHT22;7074;51.508;7.018;2023-05-07T08:10:10;19.60;99.90
13998;DHT22;7074;51.508;7.018;2023-05-07T08:12:39;19.70;99.90
13998;DHT22;7074;51.508;7.018;2023-05-07T08:15:07;19.70;99.90
13998;DHT22;7074;51.508;7.018;2023-05-07T08:17:35;19.70;99.90
13998;DHT22;7074;51.508;7.018;2023-05-07T08:20:03;19.70;99.90
13998;DHT22;7074;51.508;7.018;2023-05-07T08:22:31;19.80;99.90
13998;DHT22;7074;51.508;7.018;2023-05-07T08:24:58;19.80;99.90
13998;DHT22;7074;51.508;7.018;2023-05-07T08:27:26;19.80;99.90
13998;DHT22;7074;51.508;7.018;2023-05-07T08:29:54;19.70;99.90
13998;DHT22;7074;51.508;7.018;2023-05-07T08:32:22;19.90;99.90
13998;DHT22;7074;51.508;7.018;2023-05-07T08:34:49;20.00;99.90
13998;DHT22;7074;51.508;7.018;2023-05-07T08:37:17;20.00;99.90
13998;DHT22;7074;51.508;7.018;2023-05-07T08:39:45;20.10;99.90
13998;DHT22;7074;51.508;7.018;2023-05-07T08:42:18;20.30;99.90
13998;DHT22;7074;51.508;7.018;2023-05-07T08:44:48;20.30;99.90
13998;DHT22;7074;51.508;7.018;2023-05-07T08:47:23;20.20;99.90
13998;DHT22;7074;51.508;7.018;2023-05-07T08:49:53;20.20;99.90
13998;DHT22;7074;51.508;7.018;2023-05-07T08:52:22;20.30;99.90
13998;DHT22;7074;51.508;7.018;2023-05-07T08:54:50;20.30;99.90
13998;DHT22;7074;51.508;7.018;2023-05-07T08:57:18;20.40;99.90
13998;DHT22;7074;51.508;7.018;2023-05-07T08:59:46;20.40;99.90
13998;DHT22;7074;51.508;7.018;2023-05-07T09:02:14;20.40;99.90
13998;DHT22;7074;51.508;7.018;2023-05-07T09:04:44;20.50;99.90
13998;DHT22;7074;51.508;7.018;2023-05-07T09:07:11;20.20;99.90
13998;DHT22;7074;51.508;7.018;2023-05-07T09:09:44;20.20;99.90
13998;DHT22;7074;51.508;7.018;2023-05-07T09:12:12;20.50;99.90
13998;DHT22;7074;51.508;7.018;2023-05-07T09:14:40;20.80;99.90
13998;DHT22;7074;51.508;7.018;2023-05-07T09:17:08;21.00;99.90
13998;DHT22;7074;51.508;7.018;2023-05-07T09:19:35;21.10;99.90
13998;DHT22;7074;51.508;7.018;2023-05-07T09:22:06;21.30;99.90
13998;DHT22;7074;51.508;7.018;2023-05-07T09:24:51;21.30;99.90
13998;DHT22;7074;51.508;7.018;2023-05-07T09:27:22;21.60;99.90
13998;DHT22;7074;51.508;7.018;2023-05-07T09:29:50;21.30;99.90
13998;DHT22;7074;51.508;7.018;2023-05-07T09:32:17;21.80;99.90
13998;DHT22;7074;51.508;7.018;2023-05-07T09:34:45;21.40;99.90
13998;DHT22;7074;51.508;7.018;2023-05-07T09:37:15;21.30;99.90
13998;DHT22;7074;51.508;7.018;2023-05-07T09:39:45;21.60;99.90
13998;DHT22;7074;51.508;7.018;2023-05-07T09:42:14;21.80;99.90
13998;DHT22;7074;51.508;7.018;2023-05-07T09:44:43;22.00;99.90
13998;DHT22;7074;51.508;7.018;2023-05-07T09:47:18;22.10;99.90
13998;DHT22;7074;51.508;7.018;2023-05-07T09:49:50;22.00;99.90
13998;DHT22;7074;51.508;7.018;2023-05-07T09:52:22;22.10;99.90
13998;DHT22;7074;51.508;7.018;2023-05-07T09:54:53;22.00;99.90
13998;DHT22;7074;51.508;7.018;2023-05-07T09:57:25;21.80;99.90
13998;DHT22;7074;51.508;7.018;2023-05-07T09:59:58;21.70;99.90
13998;DHT22;7074;51.508;7.018;2023-05-07T10:02:31;21.70;99.90
13998;DHT22;7074;51.508;7.018;2023-05-07T10:24:55;22.50;99.90
13998;DHT22;7074;51.508;7.018;2023-05-07T12:47:45;23.80;99.90
13998;DHT22;7074;51.508;7.018;2023-05-07T12:50:12;23.80;99.90
13998;DHT22;7074;51.508;7.018;2023-05-07T12:52:40;23.90;99.90
13998;DHT22;7074;51.508;7.018;2023-05-07T12:55:08;24.00;99.90
13998;DHT22;7074;51.508;7.018;2023-05-07T12:57:39;23.80;99.90
13998;DHT22;7074;51.508;7.018;2023-05-07T13:00:07;23.90;99.90
13998;DHT22;7074;51.508;7.018;2023-05-07T13:02:38;23.90;99.90
13998;DHT22;7074;51.508;7.018;2023-05-07T13:05:08;23.80;99.90
13998;DHT22;7074;51.508;7.018;2023-05-07T13:07:35;23.80;99.90
13998;DHT22;7074;51.508;7.018;2023-05-07T13:10:03;23.80;99.90
13998;DHT22;7074;51.508;7.018;2023-05-07T13:12:30;23.70;99.90
13998;DHT22;7074;51.508;7.018;2023-05-07T13:14:57;23.60;99.90
13998;DHT22;7074;51.508;7.018;2023-05-07T13:17:24;23.20;99.90
13998;DHT22;7074;51.508;7.018;2023-05-07T13:19:52;23.20;99.90
13998;DHT22;7074;51.508;7.018;2023-05-07T13:22:20;23.10;99.90
13998;DHT22;7074;51.508;7.018;2023-05-07T13:24:47;23.20;99.90
13998;DHT22;7074;51.508;7.018;2023-05-07T13:27:14;23.20;99.90
13998;DHT22;7074;51.508;7.018;2023-05-07T13:29:42;23.20;99.90
13998;DHT22;7074;51.508;7.018;2023-05-07T13:32:09;23.20;99.90
13998;DHT22;7074;51.508;7.018;2023-05-07T13:34:36;23.20;99.90
13998;DHT22;7074;51.508;7.018;2023-05-07T13:37:03;23.10;99.90
13998;DHT22;7074;51.508;7.018;2023-05-07T13:39:32;23.10;99.90
13998;DHT22;7074;51.508;7.018;2023-05-07T13:41:59;23.10;99.90
13998;DHT22;7074;51.508;7.018;2023-05-07T13:44:26;23.00;99.90
13998;DHT22;7074;51.508;7.018;2023-05-07T13:46:53;23.00;99.90
13998;DHT22;7074;51.508;7.018;2023-05-07T13:49:21;23.00;99.90
13998;DHT22;7074;51.508;7.018;2023-05-07T13:51:47;23.00;99.90
13998;DHT22;7074;51.508;7.018;2023-05-07T13:54:14;23.00;99.90
13998;DHT22;7074;51.508;7.018;2023-05-07T13:56:43;23.00;99.90
13998;DHT22;7074;51.508;7.018;2023-05-07T13:59:10;22.70;99.90
13998;DHT22;7074;51.508;7.018;2023-05-07T14:01:41;22.60;99.90
13998;DHT22;7074;51.508;7.018;2023-05-07T14:04:08;22.40;99.90
13998;DHT22;7074;51.508;7.018;2023-05-07T14:06:35;22.40;99.90
13998;DHT22;7074;51.508;7.018;2023-05-07T14:09:02;22.30;99.90
13998;DHT22;7074;51.508;7.018;2023-05-07T14:11:29;22.20;99.90
13998;DHT22;7074;51.508;7.018;2023-05-07T14:13:58;22.10;99.90
13998;DHT22;7074;51.508;7.018;2023-05-07T14:16:25;22.00;99.90
13998;DHT22;7074;51.508;7.018;2023-05-07T14:18:52;21.80;99.90
13998;DHT22;7074;51.508;7.018;2023-05-07T14:21:19;21.60;99.90
13998;DHT22;7074;51.508;7.018;2023-05-07T14:23:46;21.50;99.90
13998;DHT22;7074;51.508;7.018;2023-05-07T14:26:14;21.40;99.90
13998;DHT22;7074;51.508;7.018;2023-05-07T14:28:41;21.20;99.90
13998;DHT22;7074;51.508;7.018;2023-05-07T14:31:13;21.20;99.90
13998;DHT22;7074;51.508;7.018;2023-05-07T14:33:40;21.10;99.90
13998;DHT22;7074;51.508;7.018;2023-05-07T14:36:07;21.00;99.90
13998;DHT22;7074;51.508;7.018;2023-05-07T14:38:34;21.00;99.90
13998;DHT22;7074;51.508;7.018;2023-05-07T14:41:01;20.80;99.90
13998;DHT22;7074;51.508;7.018;2023-05-07T14:43:28;20.80;99.90
13998;DHT22;7074;51.508;7.018;2023-05-07T14:45:55;20.80;99.90
13998;DHT22;7074;51.508;7.018;2023-05-07T14:48:24;20.80;99.90
13998;DHT22;7074;51.508;7.018;2023-05-07T14:50:51;20.70;99.90
13998;DHT22;7074;51.508;7.018;2023-05-07T14:53:18;20.50;99.90
13998;DHT22;7074;51.508;7.018;2023-05-07T14:55:46;20.40;99.90
13998;DHT22;7074;51.508;7.018;2023-05-07T14:58:13;20.40;99.90
13998;DHT22;7074;51.508;7.018;2023-05-07T15:00:41;20.50;99.90
13998;DHT22;7074;51.508;7.018;2023-05-07T15:03:09;20.60;99.90
13998;DHT22;7074;51.508;7.018;2023-05-07T15:05:38;20.70;99.90
13998;DHT22;7074;51.508;7.018;2023-05-07T15:08:05;20.80;99.90
13998;DHT22;7074;51.508;7.018;2023-05-07T15:10:35;20.90;99.90
13998;DHT22;7074;51.508;7.018;2023-05-07T15:13:06;20.90;99.90
13998;DHT22;7074;51.508;7.018;2023-05-07T15:15:34;21.00;99.90
13998;DHT22;7074;51.508;7.018;2023-05-07T15:18:02;21.10;99.90
13998;DHT22;7074;51.508;7.018;2023-05-07T15:20:29;21.10;99.90
13998;DHT22;7074;51.508;7.018;2023-05-07T15:22:58;21.10;99.90
13998;DHT22;7074;51.508;7.018;2023-05-07T15:25:25;21.20;99.90
13998;DHT22;7074;51.508;7.018;2023-05-07T15:27:52;21.20;99.90
13998;DHT22;7074;51.508;7.018;2023-05-07T15:30:20;21.30;99.90
13998;DHT22;7074;51.508;7.018;2023-05-07T15:32:47;21.40;99.90
13998;DHT22;7074;51.508;7.018;2023-05-07T15:35:15;21.40;99.90
13998;DHT22;7074;51.508;7.018;2023-05-07T15:37:52;21.50;99.90
13998;DHT22;7074;51.508;7.018;2023-05-07T15:40:23;21.50;99.90
13998;DHT22;7074;51.508;7.018;2023-05-07T15:42:54;21.50;99.90
13998;DHT22;7074;51.508;7.018;2023-05-07T15:45:22;21.60;99.90
13998;DHT22;7074;51.508;7.018;2023-05-07T15:47:50;21.60;99.90
13998;DHT22;7074;51.508;7.018;2023-05-07T15:50:17;21.60;99.90
13998;DHT22;7074;51.508;7.018;2023-05-07T15:52:44;21.60;99.90
13998;DHT22;7074;51.508;7.018;2023-05-07T15:55:12;21.70;99.90
13998;DHT22;7074;51.508;7.018;2023-05-07T15:57:41;21.70;99.90
13998;DHT22;7074;51.508;7.018;2023-05-07T16:00:09;21.80;99.90
13998;DHT22;7074;51.508;7.018;2023-05-07T16:02:39;21.70;99.90
13998;DHT22;7074;51.508;7.018;2023-05-07T16:05:07;21.70;99.90
13998;DHT22;7074;51.508;7.018;2023-05-07T16:07:35;21.70;99.90
13998;DHT22;7074;51.508;7.018;2023-05-07T16:10:02;21.70;99.90
13998;DHT22;7074;51.508;7.018;2023-05-07T16:12:30;21.70;99.90
13998;DHT22;7074;51.508;7.018;2023-05-07T16:14:59;21.80;99.90
13998;DHT22;7074;51.508;7.018;2023-05-07T16:17:26;21.80;99.90
13998;DHT22;7074;51.508;7.018;2023-05-07T16:19:53;21.70;99.90
13998;DHT22;7074;51.508;7.018;2023-05-07T16:22:23;21.60;99.90
13998;DHT22;7074;51.508;7.018;2023-05-07T16:24:50;21.60;99.90
13998;DHT22;7074;51.508;7.018;2023-05-07T16:27:18;21.70;99.90
13998;DHT22;7074;51.508;7.018;2023-05-07T16:29:45;21.70;99.90
13998;DHT22;7074;51.508;7.018;2023-05-07T16:32:14;21.70;99.90
13998;DHT22;7074;51.508;7.018;2023-05-07T16:34:41;21.70;99.90
13998;DHT22;7074;51.508;7.018;2023-05-07T16:37:08;21.70;99.90
13998;DHT22;7074;51.508;7.018;2023-05-07T16:39:35;21.70;99.90
13998;DHT22;7074;51.508;7.018;2023-05-07T16:42:03;21.70;99.90
13998;DHT22;7074;51.508;7.018;2023-05-07T16:44:30;21.70;99.90
13998;DHT22;7074;51.508;7.018;2023-05-07T16:47:04;21.70;99.90
13998;DHT22;7074;51.508;7.018;2023-05-07T16:49:36;21.60;99.90
13998;DHT22;7074;51.508;7.018;2023-05-07T16:52:04;21.60;99.90
13998;DHT22;7074;51.508;7.018;2023-05-07T16:54:32;21.60;99.90
13998;DHT22;7074;51.508;7.018;2023-05-07T16:57:01;21.60;99.90
13998;DHT22;7074;51.508;7.018;2023-05-07T16:59:28;21.70;99.90
13998;DHT22;7074;51.508;7.018;2023-05-07T17:01:58;21.70;99.90
13998;DHT22;7074;51.508;7.018;2023-05-07T17:04:28;21.60;99.90
13998;DHT22;7074;51.508;7.018;2023-05-07T17:06:58;21.60;99.90
13998;DHT22;7074;51.508;7.018;2023-05-07T17:09:26;21.60;99.90
13998;DHT22;7074;51.508;7.018;2023-05-07T17:11:53;21.60;99.90
13998;DHT22;7074;51.508;7.018;2023-05-07T17:14:20;21.60;99.90
13998;DHT22;7074;51.508;7.018;2023-05-07T17:16:47;21.60;99.90
13998;DHT22;7074;51.508;7.018;2023-05-07T17:19:14;21.50;99.90
13998;DHT22;7074;51.508;7.018;2023-05-07T17:21:42;21.40;99.90
13998;DHT22;7074;51.508;7.018;2023-05-07T17:24:10;21.40;99.90
13998;DHT22;7074;51.508;7.018;2023-05-07T17:26:37;21.40;99.90
13998;DHT22;7074;51.508;7.018;2023-05-07T17:29:07;21.30;99.90
13998;DHT22;7074;51.508;7.018;2023-05-07T17:31:34;21.30;99.90
13998;DHT22;7074;51.508;7.018;2023-05-07T17:34:02;21.30;99.90
13998;DHT22;7074;51.508;7.018;2023-05-07T17:36:29;21.30;99.90
13998;DHT22;7074;51.508;7.018;2023-05-07T17:38:57;21.20;99.90
13998;DHT22;7074;51.508;7.018;2023-05-07T17:41:26;21.10;99.90
13998;DHT22;7074;51.508;7.018;2023-05-07T17:43:53;21.10;99.90
13998;DHT22;7074;51.508;7.018;2023-05-07T17:46:21;21.10;99.90
13998;DHT22;7074;51.508;7.018;2023-05-07T17:48:48;21.10;99.90
13998;DHT22;7074;51.508;7.018;2023-05-07T17:51:18;21.10;99.90
13998;DHT22;7074;51.508;7.018;2023-05-07T17:53:45;21.10;99.90
13998;DHT22;7074;51.508;7.018;2023-05-07T17:56:12;21.00;99.90
13998;DHT22;7074;51.508;7.018;2023-05-07T17:58:41;21.00;99.90
13998;DHT22;7074;51.508;7.018;2023-05-07T18:01:08;21.00;99.90
13998;DHT22;7074;51.508;7.018;2023-05-07T18:03:35;21.00;99.90
13998;DHT22;7074;51.508;7.018;2023-05-07T18:06:02;20.90;99.90
13998;DHT22;7074;51.508;7.018;2023-05-07T18:08:30;20.90;99.90
13998;DHT22;7074;51.508;7.018;2023-05-07T18:10:57;20.90;99.90
13998;DHT22;7074;51.508;7.018;2023-05-07T18:13:26;20.90;99.90
13998;DHT22;7074;51.508;7.018;2023-05-07T18:15:55;20.90;99.90
13998;DHT22;7074;51.508;7.018;2023-05-07T18:18:22;20.80;99.90
13998;DHT22;7074;51.508;7.018;2023-05-07T18:20:50;20.80;99.90
13998;DHT22;7074;51.508;7.018;2023-05-07T18:23:18;20.80;99.90
13998;DHT22;7074;51.508;7.018;2023-05-07T18:25:45;20.70;99.90
13998;DHT22;7074;51.508;7.018;2023-05-07T18:28:13;20.70;99.90
13998;DHT22;7074;51.508;7.018;2023-05-07T18:30:40;20.70;99.90
13998;DHT22;7074;51.508;7.018;2023-05-07T18:33:09;20.50;99.90
13998;DHT22;7074;51.508;7.018;2023-05-07T18:35:36;20.40;99.90